KPWM/PWM METAR and TAF weather

Enter ICAO airport designator
Station Type Date Time Source
KPWM METAR 2021/01/17 18:51 UTC NOAA

KPWM 171851Z 26015G22KT 10SM BKN046 BKN055 04/M03 A2930 RMK AO2 PK WND 27033/1809 SLP922 T00441033


Station Type Date Time Source
KPWM Decoded METAR 2021/01/17 18:51 UTC NOAA

PORTLAND INTERNATIONAL JETPORT, ME, United States (KPWM) 43-39N 70-18W 15M
Jan 17, 2021 - 01:51 PM EST / 2021.01.17 1851 UTC
Wind: from the W (260 degrees) at 17 MPH (15 KT) gusting to 25 MPH (22 KT):0
Visibility: 10 mile(s):0
Sky conditions: mostly cloudy
Temperature: 39.9 F (4.4 C)
Dew Point: 26.1 F (-3.3 C)
Relative Humidity: 57%
Pressure (altimeter): 29.3 in. Hg (992 hPa)
ob: KPWM 171851Z 26015G22KT 10SM BKN046 BKN055 04/M03 A2930 RMK AO2 PK WND 27033/1809 SLP922 T00441033
cycle: 19

Station Type Date Time Source
KPWM TAF 2021/01/17 18:27 UTC NOAA

TAF KPWM 171724Z 1718/1818 26018G30KT P6SM BKN045
FM172100 25013G23KT P6SM SCT050
FM180000 24012KT P6SM FEW060
FM181500 26010G18KT P6SM BKN050

Example: see airport list